createdAt,value
2019-01-15T00:02:01.809Z,36.93
2019-01-15T00:04:30.017Z,31.97
2019-01-15T00:06:58.237Z,23.33
2019-01-15T00:09:26.442Z,28.77
2019-01-15T00:11:54.649Z,27.43
2019-01-15T00:14:22.865Z,27.73
2019-01-15T00:16:51.073Z,33.37
2019-01-15T00:19:19.329Z,29.77
2019-01-15T00:21:47.792Z,28.83
2019-01-15T00:24:15.997Z,28.67
2019-01-15T00:26:44.216Z,23.50
2019-01-15T00:29:12.502Z,24.47
2019-01-15T00:31:40.709Z,20.90
2019-01-15T00:34:08.920Z,31.67
2019-01-15T00:36:37.129Z,32.60
2019-01-15T00:39:08.041Z,29.17
2019-01-15T00:41:36.246Z,42.00
2019-01-15T00:44:04.457Z,31.33
2019-01-15T00:46:32.675Z,31.73
2019-01-15T00:49:00.885Z,30.63
2019-01-15T00:51:29.090Z,24.93
2019-01-15T00:53:57.304Z,23.67
2019-01-15T00:56:25.513Z,29.27
2019-01-15T00:58:53.969Z,31.43
2019-01-15T01:01:22.181Z,36.80
2019-01-15T01:03:50.381Z,27.03
2019-01-15T01:06:18.605Z,30.07
2019-01-15T01:08:46.817Z,20.97
2019-01-15T01:11:15.021Z,25.53
2019-01-15T01:13:43.232Z,35.63
2019-01-15T01:16:11.432Z,29.37
2019-01-15T01:18:39.660Z,31.53
2019-01-15T01:21:07.865Z,24.57
2019-01-15T01:23:36.068Z,31.17
2019-01-15T01:26:04.357Z,27.87
2019-01-15T01:28:32.566Z,33.33
2019-01-15T01:31:00.788Z,39.30
2019-01-15T01:33:28.997Z,29.30
2019-01-15T01:35:57.206Z,29.37
2019-01-15T01:38:25.412Z,30.90
2019-01-15T01:40:53.621Z,31.10
2019-01-15T01:43:21.834Z,43.60
2019-01-15T01:45:50.049Z,31.97
2019-01-15T01:48:18.272Z,31.97
2019-01-15T01:50:46.483Z,29.23
2019-01-15T01:53:34.157Z,32.87
2019-01-15T01:56:02.370Z,31.90
2019-01-15T01:58:30.595Z,30.87
2019-01-15T02:00:58.801Z,36.50
2019-01-15T02:03:27.076Z,28.40
2019-01-15T02:05:55.299Z,31.77
2019-01-15T02:08:23.511Z,30.73
2019-01-15T02:10:51.722Z,25.17
2019-01-15T02:13:19.940Z,30.70
2019-01-15T02:15:48.147Z,30.33
2019-01-15T02:18:16.348Z,32.37
2019-01-15T02:20:44.574Z,31.90
2019-01-15T02:23:12.772Z,31.17
2019-01-15T02:25:40.976Z,28.30
2019-01-15T02:28:09.197Z,27.23
2019-01-15T02:30:37.417Z,26.30
2019-01-15T02:33:05.691Z,30.53
2019-01-15T02:35:33.904Z,26.77
2019-01-15T02:38:02.111Z,28.03
2019-01-15T02:40:30.328Z,28.73
2019-01-15T02:42:58.534Z,28.60
2019-01-15T02:45:26.746Z,25.03
2019-01-15T02:47:54.957Z,30.67
2019-01-15T02:50:23.180Z,29.33
2019-01-15T02:52:51.413Z,31.10
2019-01-15T02:55:19.616Z,39.27
2019-01-15T02:57:47.826Z,34.97
2019-01-15T03:00:24.373Z,28.87
2019-01-15T03:02:52.588Z,32.43
2019-01-15T03:05:21.080Z,35.77
2019-01-15T03:07:49.317Z,41.37
2019-01-15T03:10:20.269Z,38.50
2019-01-15T03:12:55.709Z,36.73
2019-01-15T03:15:22.187Z,37.97
2019-01-15T03:17:50.396Z,31.23
2019-01-15T03:20:18.614Z,39.73
2019-01-15T03:22:46.830Z,32.50
2019-01-15T03:25:15.038Z,32.93
2019-01-15T03:27:43.249Z,34.53
2019-01-15T03:30:14.714Z,35.17
2019-01-15T03:32:42.920Z,36.00
2019-01-15T03:35:11.120Z,40.80
2019-01-15T03:37:39.324Z,40.93
2019-01-15T03:40:10.805Z,39.07
2019-01-15T03:42:39.010Z,41.07
2019-01-15T03:45:08.278Z,43.83
2019-01-15T03:47:36.492Z,47.30
2019-01-15T03:50:08.094Z,42.77
2019-01-15T03:52:36.310Z,47.63
2019-01-15T03:55:07.905Z,44.97
2019-01-15T03:57:36.131Z,50.07
2019-01-15T04:00:07.661Z,45.30
2019-01-15T04:02:36.338Z,48.30
2019-01-15T04:05:08.156Z,46.83
2019-01-15T04:07:36.754Z,46.20
2019-01-15T04:10:10.233Z,54.53
2019-01-15T04:12:38.468Z,47.90
2019-01-15T04:15:09.936Z,54.47
2019-01-15T04:17:38.136Z,58.97
2019-01-15T04:20:12.399Z,55.93
2019-01-15T04:22:40.617Z,60.27
2019-01-15T04:25:10.254Z,58.27
2019-01-15T04:27:38.461Z,54.57
2019-01-15T04:30:18.289Z,66.20
2019-01-15T04:32:46.498Z,58.93
2019-01-15T04:35:14.709Z,49.73
2019-01-15T04:37:42.920Z,49.27
2019-01-15T04:40:14.451Z,55.93
2019-01-15T04:42:42.654Z,43.93
2019-01-15T04:45:13.681Z,48.50
2019-01-15T04:47:41.886Z,40.37
2019-01-15T04:50:10.860Z,46.57
2019-01-15T04:52:40.560Z,39.03
2019-01-15T04:55:11.501Z,46.70
2019-01-15T04:57:39.700Z,44.97
2019-01-15T05:00:14.145Z,46.03
2019-01-15T05:02:42.532Z,42.77
2019-01-15T05:05:10.769Z,43.07
2019-01-15T05:07:38.978Z,45.77
2019-01-15T05:10:10.677Z,47.70
2019-01-15T05:12:38.902Z,47.77
2019-01-15T05:15:12.895Z,44.23
2019-01-15T05:17:40.768Z,40.10
2019-01-15T05:20:12.576Z,38.53
2019-01-15T05:22:40.793Z,40.80
2019-01-15T05:25:12.266Z,45.70
2019-01-15T05:27:40.476Z,40.57
2019-01-15T05:30:17.088Z,42.87
2019-01-15T05:32:45.297Z,38.37
2019-01-15T05:35:14.468Z,38.20
2019-01-15T05:37:42.686Z,34.87
2019-01-15T05:40:13.925Z,37.87
2019-01-15T05:42:42.206Z,36.30
2019-01-15T05:45:15.310Z,34.87
2019-01-15T05:47:43.899Z,37.53
2019-01-15T05:50:13.766Z,31.27
2019-01-15T05:52:41.957Z,34.53
2019-01-15T05:55:10.160Z,31.43
2019-01-15T05:57:38.381Z,33.17
2019-01-15T06:00:12.410Z,30.27
2019-01-15T06:02:40.640Z,30.53
2019-01-15T06:05:11.575Z,36.15
2019-01-15T06:07:39.796Z,34.53
2019-01-15T06:10:16.065Z,28.47
2019-01-15T06:12:44.317Z,27.90
2019-01-15T06:15:17.278Z,34.08
2019-01-15T06:17:45.505Z,29.27
2019-01-15T06:20:21.409Z,32.20
2019-01-15T06:22:49.620Z,35.37
2019-01-15T06:25:17.839Z,30.47
2019-01-15T06:27:46.046Z,33.90
2019-01-15T06:30:22.233Z,35.10
2019-01-15T06:32:50.450Z,40.47
2019-01-15T06:35:18.653Z,40.93
2019-01-15T06:37:46.874Z,36.23
2019-01-15T06:40:17.810Z,36.43
2019-01-15T06:43:05.452Z,37.63
2019-01-15T06:45:33.658Z,43.90
2019-01-15T06:48:01.876Z,37.17
2019-01-15T06:50:30.090Z,40.90
2019-01-15T06:52:58.316Z,49.73
2019-01-15T06:55:26.522Z,41.87
2019-01-15T06:57:54.786Z,45.50
2019-01-15T07:00:31.617Z,45.73
2019-01-15T07:02:59.836Z,52.13
2019-01-15T07:05:28.122Z,53.17
2019-01-15T07:07:56.336Z,51.53
2019-01-15T07:10:33.660Z,46.60
2019-01-15T07:13:01.881Z,52.67
2019-01-15T07:15:30.097Z,48.13
2019-01-15T07:17:58.308Z,52.00
2019-01-15T07:20:26.780Z,54.63
2019-01-15T07:22:54.997Z,48.70
2019-01-15T07:25:26.354Z,47.37
2019-01-15T07:27:54.569Z,55.43
2019-01-15T07:30:31.828Z,62.57
2019-01-15T07:33:00.060Z,59.40
2019-01-15T07:35:28.269Z,50.83
2019-01-15T07:37:56.473Z,58.13
2019-01-15T07:40:24.695Z,56.53
2019-01-15T07:42:53.171Z,54.30
2019-01-15T07:45:21.391Z,57.70
2019-01-15T07:47:49.602Z,57.67
2019-01-15T07:50:21.630Z,61.70
2019-01-15T07:52:49.856Z,55.30
2019-01-15T07:55:19.903Z,60.97
2019-01-15T07:57:48.151Z,59.47
2019-01-15T08:00:19.486Z,63.10
2019-01-15T08:02:48.732Z,57.83
2019-01-15T08:05:20.083Z,63.60
2019-01-15T08:07:48.288Z,62.40
2019-01-15T08:10:19.136Z,59.00
2019-01-15T08:12:47.344Z,59.23
2019-01-15T08:15:21.689Z,57.17
2019-01-15T08:17:49.921Z,60.43
2019-01-15T08:20:18.386Z,56.33
2019-01-15T08:22:46.612Z,57.47
2019-01-15T08:25:17.045Z,53.20
2019-01-15T08:27:45.268Z,56.33
2019-01-15T08:30:22.051Z,54.57
2019-01-15T08:32:50.267Z,48.77
2019-01-15T08:35:18.473Z,62.87
2019-01-15T08:37:46.750Z,53.43
2019-01-15T08:40:17.290Z,60.13
2019-01-15T08:42:45.516Z,38.17
2019-01-15T08:45:16.750Z,48.57
2019-01-15T08:47:46.609Z,37.77
2019-01-15T08:50:20.780Z,49.20
2019-01-15T08:52:48.984Z,46.43
2019-01-15T08:55:17.198Z,45.80
2019-01-15T08:57:45.421Z,40.83
2019-01-15T09:00:16.629Z,48.13
2019-01-15T09:02:44.842Z,52.47
2019-01-15T09:05:13.049Z,43.23
2019-01-15T09:07:41.261Z,45.07
2019-01-15T09:10:16.659Z,44.00
2019-01-15T09:12:44.873Z,48.77
2019-01-15T09:15:18.849Z,48.57
2019-01-15T09:17:47.138Z,43.43
2019-01-15T09:20:18.481Z,47.40
2019-01-15T09:22:46.775Z,43.47
2019-01-15T09:25:14.996Z,47.37
2019-01-15T09:27:43.225Z,42.70
2019-01-15T09:30:14.981Z,35.83
2019-01-15T09:32:43.261Z,40.50
2019-01-15T09:35:11.478Z,38.60
2019-01-15T09:37:40.271Z,37.80
2019-01-15T09:40:11.749Z,32.93
2019-01-15T09:42:39.952Z,30.30
2019-01-15T09:45:14.140Z,28.73
2019-01-15T09:47:44.007Z,30.20
2019-01-15T09:50:13.116Z,28.87
2019-01-15T09:52:41.325Z,26.83
2019-01-15T09:55:10.406Z,33.30
2019-01-15T09:57:38.637Z,31.73
2019-01-15T10:00:10.105Z,26.57
2019-01-15T10:02:38.313Z,27.37
2019-01-15T10:05:06.532Z,24.20
2019-01-15T10:07:34.734Z,22.40
2019-01-15T10:10:04.648Z,25.43
2019-01-15T10:12:32.869Z,26.03
2019-01-15T10:15:01.094Z,23.60
2019-01-15T10:17:29.321Z,20.73
2019-01-15T10:19:57.537Z,20.63
2019-01-15T10:22:25.733Z,24.83
2019-01-15T10:24:54.237Z,18.57
2019-01-15T10:27:22.449Z,25.83
2019-01-15T10:29:51.237Z,21.57
2019-01-15T10:32:32.868Z,16.47
2019-01-15T10:35:13.181Z,17.50
2019-01-15T10:37:41.405Z,22.80
2019-01-15T10:40:09.611Z,18.70
2019-01-15T10:42:37.812Z,18.03
2019-01-15T10:45:09.126Z,16.50
2019-01-15T10:47:37.349Z,21.63
2019-01-15T10:50:08.829Z,20.27
2019-01-15T10:52:37.025Z,21.90
2019-01-15T10:55:08.066Z,17.13
2019-01-15T10:57:36.277Z,22.73
2019-01-15T11:00:13.200Z,13.53
2019-01-15T11:02:41.420Z,15.63
2019-01-15T11:05:12.261Z,20.23
2019-01-15T11:07:40.468Z,19.60
2019-01-15T11:10:16.028Z,11.70
2019-01-15T11:12:44.249Z,19.10
2019-01-15T11:15:12.475Z,16.30
2019-01-15T11:17:40.677Z,14.53
2019-01-15T11:20:14.973Z,15.57
2019-01-15T11:22:43.269Z,14.03
2019-01-15T11:25:11.520Z,12.57
2019-01-15T11:27:39.789Z,12.70
2019-01-15T11:30:11.503Z,14.30
2019-01-15T11:32:39.781Z,12.70
2019-01-15T11:35:13.115Z,10.37
2019-01-15T11:37:41.332Z,12.87
2019-01-15T11:40:12.496Z,14.43
2019-01-15T11:42:40.708Z,10.73
2019-01-15T11:45:12.025Z,16.13
2019-01-15T11:47:40.233Z,10.43
2019-01-15T11:50:14.290Z,12.17
2019-01-15T11:52:42.504Z,12.00
2019-01-15T11:55:10.721Z,11.63
2019-01-15T11:57:38.997Z,9.50
2019-01-15T12:00:17.910Z,14.20
2019-01-15T12:02:47.699Z,9.80
2019-01-15T12:05:33.881Z,9.40
2019-01-15T12:08:20.372Z,9.10
2019-01-15T12:10:53.257Z,11.90
2019-01-15T12:13:25.937Z,9.80
2019-01-15T12:15:55.789Z,11.07
2019-01-15T12:18:34.440Z,7.70
2019-01-15T12:21:07.267Z,12.33
2019-01-15T12:23:53.465Z,10.93
2019-01-15T12:26:23.334Z,8.67
2019-01-15T12:29:05.121Z,8.90
2019-01-15T12:31:40.830Z,10.27
2019-01-15T12:34:26.845Z,12.67
2019-01-15T12:36:56.702Z,11.70
2019-01-15T12:39:43.189Z,12.43
2019-01-15T12:42:18.981Z,10.10
2019-01-15T12:45:04.997Z,16.33
2019-01-15T12:47:34.858Z,11.80
2019-01-15T12:50:08.545Z,9.73
2019-01-15T12:52:47.370Z,12.00
2019-01-15T12:55:17.218Z,11.73
2019-01-15T12:57:49.483Z,11.03
2019-01-15T13:00:22.109Z,15.33
2019-01-15T13:02:55.078Z,11.70
2019-01-15T13:05:34.098Z,14.37
2019-01-15T13:08:03.945Z,14.03
2019-01-15T13:10:48.812Z,11.80
2019-01-15T13:13:34.013Z,12.73
2019-01-15T13:16:09.705Z,17.10
2019-01-15T13:18:54.631Z,11.57
2019-01-15T13:21:24.489Z,11.97
2019-01-15T13:24:03.237Z,13.33
2019-01-15T13:26:33.117Z,16.00
2019-01-15T13:29:08.629Z,12.70
2019-01-15T13:31:41.204Z,11.47
2019-01-15T13:34:22.642Z,9.57
2019-01-15T13:36:58.271Z,12.63
2019-01-15T13:39:28.117Z,17.77
2019-01-15T13:42:04.069Z,12.37
2019-01-15T13:47:19.558Z,10.93
2019-01-15T13:49:49.438Z,9.13
2019-01-15T13:52:28.529Z,10.17
2019-01-15T13:55:10.482Z,12.83
2019-01-15T13:57:56.847Z,12.83
2019-01-15T14:00:36.025Z,12.63
2019-01-15T14:03:08.615Z,12.40
2019-01-15T14:05:57.050Z,12.90
2019-01-15T14:08:26.921Z,15.00
2019-01-15T14:10:56.766Z,15.20
2019-01-15T14:13:35.629Z,14.20
2019-01-15T14:16:05.482Z,15.27
2019-01-15T14:18:35.352Z,16.20
2019-01-15T14:21:11.189Z,15.67
2019-01-15T14:23:50.017Z,15.07
2019-01-15T14:26:19.882Z,16.23
2019-01-15T14:28:52.973Z,15.13
2019-01-15T14:31:31.817Z,16.33
2019-01-15T14:34:04.534Z,13.77
2019-01-15T14:36:37.155Z,17.93
2019-01-15T14:39:15.245Z,16.67
2019-01-15T14:42:00.413Z,10.40
2019-01-15T14:44:39.004Z,11.60
2019-01-15T14:47:11.837Z,17.57
2019-01-15T14:49:53.519Z,13.33
2019-01-15T14:52:23.389Z,15.83
2019-01-15T14:55:05.393Z,11.87
2019-01-15T14:57:51.607Z,11.97
2019-01-15T15:00:25.326Z,12.70
2019-01-15T15:03:01.457Z,23.17
2019-01-15T15:05:37.301Z,14.70
2019-01-15T15:08:13.386Z,15.00
2019-01-15T15:10:43.232Z,15.47
2019-01-15T15:13:22.185Z,18.40
2019-01-15T15:16:08.192Z,13.47
2019-01-15T15:18:47.054Z,16.20
2019-01-15T15:21:16.916Z,20.37
2019-01-15T15:23:46.768Z,14.73
2019-01-15T15:26:34.636Z,17.50
2019-01-15T15:29:04.495Z,14.53
2019-01-15T15:31:43.666Z,17.00
2019-01-15T15:34:22.617Z,13.17
2019-01-15T15:36:52.462Z,20.90
2019-01-15T15:39:25.205Z,17.33
2019-01-15T15:42:00.781Z,17.20
2019-01-15T15:44:30.641Z,18.27
2019-01-15T15:47:09.349Z,17.20
2019-01-15T15:49:51.435Z,16.20
2019-01-15T15:52:21.282Z,22.13
2019-01-15T15:54:54.124Z,17.33
2019-01-15T15:57:42.366Z,15.73
2019-01-15T16:00:15.454Z,13.73
2019-01-15T16:03:01.612Z,13.77
2019-01-15T16:05:37.279Z,11.27
2019-01-15T16:08:23.464Z,12.37
2019-01-15T16:10:53.572Z,17.43
2019-01-15T16:13:39.714Z,13.77
2019-01-15T16:16:19.155Z,15.00
2019-01-15T16:18:58.737Z,11.10
2019-01-15T16:21:37.454Z,9.77
2019-01-15T16:24:13.498Z,13.53
2019-01-15T16:26:59.600Z,12.20
2019-01-15T16:29:29.467Z,11.67
2019-01-15T16:31:59.361Z,12.33
2019-01-15T16:34:29.209Z,12.57
2019-01-15T16:36:59.091Z,13.27
2019-01-15T16:39:45.518Z,9.37
2019-01-15T16:42:18.352Z,8.17
2019-01-15T16:44:50.929Z,11.80
2019-01-15T16:47:37.527Z,13.57
2019-01-15T16:50:11.497Z,11.43
2019-01-15T16:52:41.501Z,12.50
2019-01-15T16:55:15.541Z,13.93
2019-01-15T16:57:54.745Z,13.07
2019-01-15T17:00:24.584Z,10.00
2019-01-15T17:03:03.414Z,15.50
2019-01-15T17:05:33.245Z,10.57
2019-01-15T17:08:05.749Z,13.50
2019-01-15T17:10:50.714Z,9.73
2019-01-15T17:13:20.562Z,13.83
2019-01-15T17:16:06.951Z,11.67
2019-01-15T17:18:42.702Z,17.20
2019-01-15T17:21:12.575Z,16.37
2019-01-15T17:23:57.705Z,14.00
2019-01-15T17:26:27.565Z,15.63
2019-01-15T17:29:06.150Z,13.83
2019-01-15T17:31:42.030Z,14.33
2019-01-15T17:34:11.890Z,13.30
2019-01-15T17:36:44.437Z,12.30
2019-01-15T17:39:14.320Z,11.77
2019-01-15T17:42:00.696Z,10.70
2019-01-15T17:44:47.059Z,11.03
2019-01-15T17:47:32.189Z,14.10
2019-01-15T17:50:18.462Z,13.03
2019-01-15T17:52:54.034Z,12.17
2019-01-15T17:55:38.941Z,14.17
2019-01-15T17:58:14.961Z,16.13
2019-01-15T18:00:47.517Z,12.07
2019-01-15T18:03:32.684Z,9.13
2019-01-15T18:06:17.932Z,10.60
2019-01-15T18:08:56.710Z,13.35
2019-01-15T18:11:44.724Z,19.23
2019-01-15T18:14:29.880Z,12.30
2019-01-15T18:17:05.745Z,12.80
2019-01-15T18:19:47.715Z,14.63
2019-01-15T18:22:17.562Z,17.50
2019-01-15T18:24:56.278Z,13.53
2019-01-15T18:27:28.824Z,16.53
2019-01-15T18:30:01.730Z,12.67
2019-01-15T18:32:50.002Z,14.37
2019-01-15T18:35:19.922Z,16.77
2019-01-15T18:38:04.857Z,14.27
2019-01-15T18:40:40.897Z,17.00
2019-01-15T18:43:26.653Z,15.47
2019-01-15T18:46:14.874Z,15.23
2019-01-15T18:48:59.729Z,16.90
2019-01-15T18:51:32.287Z,13.30
2019-01-15T18:54:04.914Z,16.13
2019-01-15T18:56:50.118Z,14.00
2019-01-15T18:59:20.038Z,15.00
2019-01-15T19:01:55.889Z,16.10
2019-01-15T19:04:41.937Z,19.70
2019-01-15T19:07:14.944Z,17.97
2019-01-15T19:09:47.445Z,16.10
2019-01-15T19:12:23.012Z,20.77
2019-01-15T19:14:58.661Z,15.73
2019-01-15T19:17:40.411Z,18.50
2019-01-15T19:20:24.265Z,17.97
2019-01-15T19:23:10.293Z,18.43
2019-01-15T19:25:51.792Z,18.13
2019-01-15T19:28:30.396Z,20.03
2019-01-15T19:31:00.256Z,18.03
2019-01-15T19:33:39.346Z,19.73
2019-01-15T19:36:11.904Z,18.70
2019-01-15T19:38:48.060Z,15.23
2019-01-15T19:41:34.433Z,16.27
2019-01-15T19:44:07.200Z,15.33
2019-01-15T19:46:52.039Z,18.20
2019-01-15T19:49:30.852Z,17.63
2019-01-15T19:52:17.084Z,18.03
2019-01-15T19:54:46.953Z,14.87
2019-01-15T19:57:16.813Z,16.37
2019-01-15T19:59:55.952Z,16.33
2019-01-15T20:02:28.308Z,15.23
2019-01-15T20:05:04.069Z,19.10
2019-01-15T20:07:33.913Z,15.97
2019-01-15T20:10:15.700Z,16.70
2019-01-15T20:12:45.616Z,16.30
2019-01-15T20:15:33.801Z,14.90
2019-01-15T20:18:20.157Z,15.17
2019-01-15T20:20:52.677Z,16.60
2019-01-15T20:23:31.637Z,14.97
2019-01-15T20:26:16.499Z,17.20
2019-01-15T20:28:58.056Z,15.87
2019-01-15T20:31:33.673Z,15.50
2019-01-15T20:34:20.032Z,14.23
2019-01-15T20:36:55.864Z,17.17
2019-01-15T20:39:28.640Z,14.73
2019-01-15T20:41:58.500Z,15.93
2019-01-15T20:44:34.097Z,12.53
2019-01-15T20:47:09.872Z,14.23
2019-01-15T20:49:48.533Z,12.33
2019-01-15T20:52:24.420Z,15.53
2019-01-15T20:54:54.305Z,16.93
2019-01-15T20:57:32.965Z,12.50
2019-01-15T21:00:02.814Z,16.13
2019-01-15T21:02:32.738Z,12.07
2019-01-15T21:05:14.265Z,16.13
2019-01-15T21:07:53.349Z,12.83
2019-01-15T21:10:23.200Z,10.90
2019-01-15T21:13:09.513Z,11.00
2019-01-15T21:15:42.341Z,12.50
2019-01-15T21:18:21.262Z,8.40
2019-01-15T21:21:06.093Z,11.33
2019-01-15T21:23:38.610Z,9.83
2019-01-15T21:26:11.422Z,13.97
2019-01-15T21:28:44.209Z,12.57
2019-01-15T21:31:16.759Z,12.37
2019-01-15T21:33:49.348Z,11.30
2019-01-15T21:36:25.261Z,10.83
2019-01-15T21:39:01.128Z,13.33
2019-01-15T21:41:33.702Z,14.00
2019-01-15T21:44:19.980Z,15.13
2019-01-15T21:46:49.828Z,14.03
2019-01-15T21:49:25.663Z,16.43
2019-01-15T21:52:10.536Z,13.90
2019-01-15T21:54:46.374Z,16.27
2019-01-15T21:57:18.980Z,14.07
2019-01-15T21:59:51.925Z,15.97
2019-01-15T22:02:30.702Z,16.87
2019-01-15T22:05:09.872Z,15.43
2019-01-15T22:07:39.716Z,16.87
2019-01-15T22:10:22.917Z,16.40
2019-01-15T22:12:55.828Z,15.37
2019-01-15T22:15:29.277Z,15.93
2019-01-15T22:17:59.210Z,13.43
2019-01-15T22:20:45.356Z,15.77
2019-01-15T22:23:21.342Z,12.97
2019-01-15T22:26:00.156Z,13.87
2019-01-15T22:28:32.516Z,17.23
2019-01-15T22:31:11.292Z,16.00
2019-01-15T22:33:57.572Z,14.77
2019-01-15T22:36:36.123Z,13.40
2019-01-15T22:39:21.301Z,17.07
2019-01-15T22:41:53.813Z,17.83
2019-01-15T22:44:42.010Z,17.63
2019-01-15T22:47:18.000Z,19.80
2019-01-15T22:50:04.644Z,18.80
2019-01-15T22:52:46.785Z,17.33
2019-01-15T22:55:28.632Z,12.60
2019-01-15T22:58:14.789Z,22.23
2019-01-15T23:01:03.380Z,25.23
2019-01-15T23:06:47.580Z,27.27
2019-01-15T23:09:26.393Z,20.50
2019-01-15T23:11:59.341Z,26.03
2019-01-15T23:14:31.896Z,21.00
2019-01-15T23:17:04.401Z,29.97
2019-01-15T23:19:37.205Z,26.13
2019-01-15T23:22:23.528Z,24.87
2019-01-15T23:25:05.610Z,20.47
2019-01-15T23:27:38.402Z,23.63
2019-01-15T23:30:26.443Z,23.60
2019-01-15T23:32:59.278Z,21.67
2019-01-15T23:35:32.043Z,24.10
2019-01-15T23:38:13.773Z,26.40
2019-01-15T23:40:46.368Z,26.23
2019-01-15T23:43:32.674Z,22.27
2019-01-15T23:46:11.754Z,22.27
2019-01-15T23:48:47.553Z,24.40
2019-01-15T23:51:20.280Z,21.27
2019-01-15T23:54:02.416Z,23.10
2019-01-15T23:56:38.270Z,28.23
2019-01-15T23:59:24.368Z,24.60
